Time;durP1;ratioP1;P1;durP2;ratioP2;P2;SDS_P1;SDS_P2;PMS_P1;PMS_P2;Temp;Humidity;BMP_temperature;BMP_pressure;BME280_temperature;BME280_humidity;BME280_pressure;Samples;Min_cycle;Max_cycle;Signal;HPM_P1;HPM_P2
2024/03/14 00:00:50;;;;;;;;;;;8.50;90.10;;;;;;5021618;28;87764;-45
2024/03/14 00:03:16;;;;;;;;;;;8.50;90.10;;;;;;5015294;28;87477;-45
2024/03/14 00:05:42;;;;;;;;;;;8.50;90.10;;;;;;5023774;28;86893;-44
2024/03/14 00:08:07;;;;;;;;;;;8.50;90.00;;;;;;5014152;28;88600;-45
2024/03/14 00:10:33;;;;;;;;;;;8.50;90.00;;;;;;5015852;28;87247;-44
2024/03/14 00:12:58;;;;;;;;;;;8.50;90.00;;;;;;5012378;28;86973;-43
2024/03/14 00:15:24;;;;;;;;;;;8.50;90.00;;;;;;5015826;28;88593;-45
2024/03/14 00:17:50;;;;;;;;;;;8.50;90.10;;;;;;5018432;28;87005;-45
2024/03/14 00:20:15;;;;;;;;;;;8.40;90.00;;;;;;5017232;28;86668;-44
2024/03/14 00:22:44;;;;;;;;;;;8.40;90.10;;;;;;5022629;28;87670;-45
2024/03/14 00:25:10;;;;;;;;;;;8.40;90.10;;;;;;5014573;28;86367;-45
2024/03/14 00:27:37;;;;;;;;;;;8.40;90.10;;;;;;5021119;28;87157;-43
2024/03/14 00:30:04;;;;;;;;;;;8.40;90.10;;;;;;5014919;28;87083;-43
2024/03/14 00:32:30;;;;;;;;;;;8.40;90.10;;;;;;5015467;28;88191;-44
2024/03/14 00:34:55;;;;;;;;;;;8.40;90.10;;;;;;5017708;28;88994;-44
2024/03/14 00:37:21;;;;;;;;;;;8.40;90.10;;;;;;5022316;28;87888;-44
2024/03/14 00:39:46;;;;;;;;;;;8.40;90.10;;;;;;5018372;28;87567;-43
2024/03/14 00:42:13;;;;;;;;;;;8.40;90.10;;;;;;5011820;28;87791;-45
2024/03/14 00:44:38;;;;;;;;;;;8.40;90.10;;;;;;5016943;28;87007;-45
2024/03/14 00:47:05;;;;;;;;;;;8.40;90.10;;;;;;5016593;28;86996;-43
2024/03/14 00:49:30;;;;;;;;;;;8.40;90.10;;;;;;5018214;28;87749;-45
2024/03/14 00:51:57;;;;;;;;;;;8.40;90.10;;;;;;5020028;28;87005;-45
2024/03/14 00:54:22;;;;;;;;;;;8.40;90.10;;;;;;5017397;28;87319;-45
2024/03/14 00:56:48;;;;;;;;;;;8.40;90.10;;;;;;5013212;28;88132;-44
2024/03/14 00:59:14;;;;;;;;;;;8.40;90.10;;;;;;5012108;28;88815;-45
2024/03/14 01:01:44;;;;;;;;;;;8.40;90.40;;;;;;5017220;28;88455;-44
2024/03/14 01:04:10;;;;;;;;;;;8.40;90.10;;;;;;5014401;28;86979;-44
2024/03/14 01:06:38;;;;;;;;;;;8.30;90.10;;;;;;5019813;28;87026;-44
2024/03/14 01:09:04;;;;;;;;;;;8.40;90.10;;;;;;5013479;28;88568;-44
2024/03/14 01:11:29;;;;;;;;;;;8.30;90.20;;;;;;5024615;28;86940;-43
2024/03/14 01:13:55;;;;;;;;;;;8.40;90.10;;;;;;5022649;28;86701;-45
2024/03/14 01:16:20;;;;;;;;;;;8.30;90.20;;;;;;5014771;28;87703;-45
2024/03/14 01:18:49;;;;;;;;;;;8.30;90.20;;;;;;5022128;28;87904;-45
2024/03/14 01:21:15;;;;;;;;;;;8.30;90.10;;;;;;5009817;28;88342;-45
2024/03/14 01:23:41;;;;;;;;;;;8.40;90.10;;;;;;5020608;28;86891;-44
2024/03/14 01:26:08;;;;;;;;;;;8.30;90.10;;;;;;5016963;28;87922;-45
2024/03/14 01:28:33;;;;;;;;;;;8.30;90.10;;;;;;5019056;28;86961;-44
2024/03/14 01:30:59;;;;;;;;;;;8.30;90.10;;;;;;5016847;28;87145;-43
2024/03/14 01:33:25;;;;;;;;;;;8.30;90.10;;;;;;5019833;28;86963;-44
2024/03/14 01:35:54;;;;;;;;;;;8.30;90.10;;;;;;5018238;28;87832;-45
2024/03/14 01:38:20;;;;;;;;;;;8.30;90.10;;;;;;5017545;28;87053;-46
2024/03/14 01:40:46;;;;;;;;;;;8.30;90.10;;;;;;5020460;28;89933;-45
2024/03/14 01:43:11;;;;;;;;;;;8.30;90.10;;;;;;5016864;28;87406;-44
2024/03/14 01:45:37;;;;;;;;;;;8.30;90.20;;;;;;5015814;28;88639;-45
2024/03/14 01:48:03;;;;;;;;;;;8.30;90.10;;;;;;5017930;28;88418;-44
2024/03/14 01:50:28;;;;;;;;;;;8.30;90.10;;;;;;5018135;28;87005;-44
2024/03/14 01:52:54;;;;;;;;;;;8.30;90.10;;;;;;5018891;28;87064;-45
2024/03/14 01:55:19;;;;;;;;;;;8.30;90.10;;;;;;5013503;28;87045;-45
2024/03/14 01:57:45;;;;;;;;;;;8.30;90.10;;;;;;5019392;28;87919;-45
2024/03/14 02:00:13;;;;;;;;;;;8.30;90.10;;;;;;5015945;28;87607;-44
2024/03/14 02:02:40;;;;;;;;;;;8.30;90.10;;;;;;5023552;28;86976;-44
2024/03/14 02:05:15;;;;;;;;;;;8.30;90.10;;;;;;5022782;28;86960;-46
2024/03/14 02:07:42;;;;;;;;;;;8.30;90.10;;;;;;5023073;28;87819;-44
2024/03/14 02:10:10;;;;;;;;;;;8.30;90.10;;;;;;5018924;28;87879;-46
2024/03/14 02:12:37;;;;;;;;;;;8.30;90.10;;;;;;5021495;28;88794;-45
2024/03/14 02:15:04;;;;;;;;;;;8.30;90.10;;;;;;5015657;28;87721;-45
2024/03/14 02:17:30;;;;;;;;;;;8.30;90.10;;;;;;5021147;28;86977;-44
2024/03/14 02:19:56;;;;;;;;;;;8.20;90.20;;;;;;5021549;28;87505;-44
2024/03/14 02:22:21;;;;;;;;;;;8.20;90.10;;;;;;5021678;28;87458;-44
2024/03/14 02:24:47;;;;;;;;;;;8.30;90.10;;;;;;5023579;28;87934;-45
2024/03/14 02:27:14;;;;;;;;;;;8.30;90.10;;;;;;5021803;28;86892;-44
2024/03/14 02:29:40;;;;;;;;;;;8.20;90.20;;;;;;5022849;28;86977;-46
2024/03/14 02:32:05;;;;;;;;;;;8.20;90.10;;;;;;5015367;28;87129;-43
2024/03/14 02:34:31;;;;;;;;;;;8.20;90.20;;;;;;5020386;28;88381;-45
2024/03/14 02:36:56;;;;;;;;;;;8.20;90.10;;;;;;5024712;28;87099;-44
2024/03/14 02:39:22;;;;;;;;;;;8.20;90.20;;;;;;5015541;28;88562;-45
2024/03/14 02:41:50;;;;;;;;;;;8.20;90.20;;;;;;5020459;28;86978;-44
2024/03/14 02:44:16;;;;;;;;;;;8.20;90.10;;;;;;5020062;28;87982;-45
2024/03/14 02:46:43;;;;;;;;;;;8.20;90.10;;;;;;5019844;28;89037;-44
2024/03/14 02:49:10;;;;;;;;;;;8.20;90.20;;;;;;5013734;28;87033;-45
2024/03/14 02:51:36;;;;;;;;;;;8.20;90.10;;;;;;5021770;28;86962;-45
2024/03/14 02:54:05;;;;;;;;;;;8.20;90.10;;;;;;5017771;28;88776;-45
2024/03/14 02:56:31;;;;;;;;;;;8.20;90.10;;;;;;5020207;28;87072;-46
2024/03/14 02:58:56;;;;;;;;;;;8.20;90.10;;;;;;5021439;28;87905;-44
2024/03/14 03:01:22;;;;;;;;;;;8.20;90.10;;;;;;5019328;28;87684;-45
2024/03/14 03:03:48;;;;;;;;;;;8.20;90.10;;;;;;5019147;28;87448;-44
2024/03/14 03:06:13;;;;;;;;;;;8.20;90.10;;;;;;5016516;28;87424;-44
2024/03/14 03:08:42;;;;;;;;;;;8.20;90.10;;;;;;5018780;28;87058;-45
2024/03/14 03:11:09;;;;;;;;;;;8.20;90.10;;;;;;5017236;28;87034;-44
2024/03/14 03:13:36;;;;;;;;;;;8.20;90.10;;;;;;5017826;28;88551;-46
2024/03/14 03:16:04;;;;;;;;;;;8.20;90.10;;;;;;5019017;28;86457;-44
2024/03/14 03:18:30;;;;;;;;;;;8.20;90.10;;;;;;5018557;28;87643;-44
2024/03/14 03:20:55;;;;;;;;;;;8.20;90.10;;;;;;5022453;28;88307;-45
2024/03/14 03:23:21;;;;;;;;;;;8.20;90.10;;;;;;5016710;28;87919;-44
2024/03/14 03:25:46;;;;;;;;;;;8.20;90.10;;;;;;5017006;28;88888;-44
2024/03/14 03:28:13;;;;;;;;;;;8.10;90.10;;;;;;5017344;28;86963;-46
2024/03/14 03:30:39;;;;;;;;;;;8.20;90.10;;;;;;5022650;28;87875;-44
2024/03/14 03:33:11;;;;;;;;;;;8.10;90.10;;;;;;5020059;28;87476;-43
2024/03/14 03:35:38;;;;;;;;;;;8.10;90.10;;;;;;5019366;28;87752;-45
2024/03/14 03:38:06;;;;;;;;;;;8.10;90.10;;;;;;5019124;28;87691;-43
2024/03/14 03:40:35;;;;;;;;;;;8.20;90.10;;;;;;5019880;28;87806;-46
2024/03/14 03:43:04;;;;;;;;;;;8.10;90.10;;;;;;5022745;28;86993;-44
2024/03/14 03:45:29;;;;;;;;;;;8.10;90.00;;;;;;5016296;28;87684;-44
2024/03/14 03:47:55;;;;;;;;;;;8.10;90.10;;;;;;5020549;28;88332;-45
2024/03/14 03:50:21;;;;;;;;;;;8.10;90.10;;;;;;5011425;28;87803;-45
2024/03/14 03:52:47;;;;;;;;;;;8.10;90.10;;;;;;5015397;28;88807;-43
2024/03/14 03:55:16;;;;;;;;;;;8.10;90.10;;;;;;5018466;28;86970;-46
2024/03/14 03:57:43;;;;;;;;;;;8.10;90.10;;;;;;5012968;28;87176;-45
2024/03/14 04:00:32;;;;;;;;;;;8.10;90.10;;;;;;5014643;28;88370;-45
2024/03/14 04:02:55;;;;;;;;;;;8.10;90.10;;;;;;5018673;28;87003;-45
2024/03/14 04:05:20;;;;;;;;;;;8.10;90.10;;;;;;5019716;28;86723;-43
2024/03/14 04:07:47;;;;;;;;;;;8.10;90.20;;;;;;5010121;28;87063;-44
2024/03/14 04:10:14;;;;;;;;;;;8.10;90.10;;;;;;5019950;28;87459;-46
2024/03/14 04:12:39;;;;;;;;;;;8.10;90.10;;;;;;5009318;28;89383;-45
2024/03/14 04:15:06;;;;;;;;;;;8.10;90.10;;;;;;5015137;28;87101;-45
2024/03/14 04:17:33;;;;;;;;;;;8.10;90.10;;;;;;5019581;28;87094;-44
2024/03/14 04:19:59;;;;;;;;;;;8.10;90.10;;;;;;5017945;28;88540;-45
2024/03/14 04:22:25;;;;;;;;;;;8.10;90.40;;;;;;5015832;28;87199;-45
2024/03/14 04:24:51;;;;;;;;;;;8.00;90.10;;;;;;5017137;28;87079;-45
2024/03/14 04:27:18;;;;;;;;;;;8.10;90.10;;;;;;5016963;28;86962;-45
2024/03/14 04:29:45;;;;;;;;;;;8.00;90.10;;;;;;5015251;28;87965;-45
2024/03/14 04:32:13;;;;;;;;;;;8.10;90.20;;;;;;5022724;28;87622;-43
2024/03/14 04:34:39;;;;;;;;;;;8.00;90.10;;;;;;5022119;28;87001;-45
2024/03/14 04:37:06;;;;;;;;;;;8.00;90.10;;;;;;5006322;27;88501;-43
2024/03/14 04:39:32;;;;;;;;;;;8.00;90.10;;;;;;5011884;28;88662;-45
2024/03/14 04:41:59;;;;;;;;;;;8.00;90.10;;;;;;5021381;28;87168;-45
2024/03/14 04:44:24;;;;;;;;;;;8.00;90.10;;;;;;5014109;28;88036;-44
2024/03/14 04:46:54;;;;;;;;;;;8.00;90.10;;;;;;5022473;28;87456;-44
2024/03/14 04:49:21;;;;;;;;;;;8.00;90.10;;;;;;5018316;28;87714;-43
2024/03/14 04:51:46;;;;;;;;;;;8.00;90.10;;;;;;5015255;28;88632;-46
2024/03/14 04:54:14;;;;;;;;;;;8.00;90.10;;;;;;5015744;28;86959;-45
2024/03/14 04:56:40;;;;;;;;;;;8.00;90.10;;;;;;5017980;28;87247;-45
2024/03/14 04:59:08;;;;;;;;;;;8.00;90.10;;;;;;5013613;28;87501;-45
2024/03/14 05:01:34;;;;;;;;;;;8.00;90.10;;;;;;5016113;28;88123;-44
2024/03/14 05:03:59;;;;;;;;;;;8.00;90.10;;;;;;5017110;28;87607;-45
2024/03/14 05:06:28;;;;;;;;;;;8.00;90.10;;;;;;5022056;28;88479;-44
2024/03/14 05:08:54;;;;;;;;;;;8.00;90.20;;;;;;5016307;28;87018;-44
2024/03/14 05:11:21;;;;;;;;;;;8.00;90.10;;;;;;5015254;28;88593;-45
2024/03/14 05:13:49;;;;;;;;;;;8.00;90.20;;;;;;5016898;28;87053;-45
2024/03/14 05:16:16;;;;;;;;;;;8.00;90.20;;;;;;5020595;28;87716;-45
2024/03/14 05:18:42;;;;;;;;;;;8.00;90.10;;;;;;5019269;28;86226;-45
2024/03/14 05:21:10;;;;;;;;;;;8.00;90.10;;;;;;5019255;28;88953;-46
2024/03/14 05:23:36;;;;;;;;;;;8.00;90.10;;;;;;5016315;28;87925;-44
2024/03/14 05:26:05;;;;;;;;;;;8.00;90.10;;;;;;5012704;28;88426;-44
2024/03/14 05:28:31;;;;;;;;;;;8.00;90.10;;;;;;5014476;28;87131;-45
2024/03/14 05:30:57;;;;;;;;;;;8.00;90.10;;;;;;5021276;28;87055;-44
2024/03/14 05:33:22;;;;;;;;;;;7.90;90.10;;;;;;5019379;28;87125;-44
2024/03/14 05:35:49;;;;;;;;;;;7.90;90.10;;;;;;5019332;28;87730;-45
2024/03/14 05:38:15;;;;;;;;;;;8.00;90.10;;;;;;5018568;28;88602;-46
2024/03/14 05:40:41;;;;;;;;;;;8.00;90.10;;;;;;5021940;28;87354;-44
2024/03/14 05:43:06;;;;;;;;;;;8.00;90.10;;;;;;5018155;28;86812;-45
2024/03/14 05:45:35;;;;;;;;;;;7.90;90.10;;;;;;5022765;28;87513;-45
2024/03/14 05:48:18;;;;;;;;;;;7.90;90.10;;;;;;5037521;28;87074;-45
2024/03/14 05:50:44;;;;;;;;;;;8.00;90.10;;;;;;5017598;28;89569;-45
2024/03/14 05:53:10;;;;;;;;;;;8.00;90.10;;;;;;5022810;28;86970;-44
2024/03/14 05:55:36;;;;;;;;;;;7.90;90.10;;;;;;5020806;28;87006;-44
2024/03/14 05:58:02;;;;;;;;;;;7.90;90.10;;;;;;5023735;28;88745;-43
2024/03/14 06:00:29;;;;;;;;;;;7.90;90.00;;;;;;5017063;28;87053;-46
2024/03/14 06:02:54;;;;;;;;;;;7.90;90.00;;;;;;5022081;28;87769;-44
2024/03/14 06:05:20;;;;;;;;;;;7.90;90.10;;;;;;5021280;28;87671;-45
2024/03/14 06:07:46;;;;;;;;;;;7.90;90.10;;;;;;5021445;28;86689;-44
2024/03/14 06:10:14;;;;;;;;;;;7.90;90.00;;;;;;5016656;28;88532;-45
2024/03/14 06:12:45;;;;;;;;;;;7.90;90.10;;;;;;5023970;28;88536;-46
2024/03/14 06:15:12;;;;;;;;;;;7.90;90.10;;;;;;5020564;28;89173;-45
2024/03/14 06:17:38;;;;;;;;;;;7.90;90.00;;;;;;5020473;28;87427;-44
2024/03/14 06:20:07;;;;;;;;;;;8.00;90.00;;;;;;5019830;28;88927;-44
2024/03/14 06:22:36;;;;;;;;;;;7.90;90.00;;;;;;5018753;28;87688;-44
2024/03/14 06:25:01;;;;;;;;;;;7.90;90.10;;;;;;5023675;28;87644;-44
2024/03/14 06:27:27;;;;;;;;;;;7.90;90.10;;;;;;5020360;28;87550;-45
2024/03/14 06:29:54;;;;;;;;;;;7.90;90.10;;;;;;5021463;28;86998;-44
2024/03/14 06:32:21;;;;;;;;;;;7.90;90.10;;;;;;5018298;28;88601;-45
2024/03/14 06:34:47;;;;;;;;;;;7.90;90.00;;;;;;5022812;28;87310;-44
2024/03/14 06:37:13;;;;;;;;;;;7.90;90.00;;;;;;5013903;28;88501;-45
2024/03/14 06:39:38;;;;;;;;;;;7.90;90.00;;;;;;5016826;28;88128;-45
2024/03/14 06:42:04;;;;;;;;;;;7.90;90.00;;;;;;5016514;28;88018;-44
2024/03/14 06:44:30;;;;;;;;;;;7.90;90.00;;;;;;5021888;28;87034;-45
2024/03/14 06:46:55;;;;;;;;;;;7.90;90.00;;;;;;5020874;28;86964;-45
2024/03/14 06:49:22;;;;;;;;;;;7.90;90.10;;;;;;5021987;28;88299;-46
2024/03/14 06:51:50;;;;;;;;;;;7.90;90.00;;;;;;5020725;28;88585;-45
2024/03/14 06:54:17;;;;;;;;;;;7.90;90.10;;;;;;5016589;28;86998;-45
2024/03/14 06:56:42;;;;;;;;;;;7.90;90.20;;;;;;5022697;28;86272;-45
2024/03/14 06:59:08;;;;;;;;;;;7.90;90.10;;;;;;5018972;28;87423;-45
2024/03/14 07:01:33;;;;;;;;;;;7.90;90.10;;;;;;5014482;28;87027;-44
2024/03/14 07:03:59;;;;;;;;;;;7.90;90.00;;;;;;5015199;28;89403;-44
2024/03/14 07:06:26;;;;;;;;;;;7.90;90.00;;;;;;5016112;28;87139;-45
2024/03/14 07:08:56;;;;;;;;;;;7.90;90.10;;;;;;5017667;28;87928;-45
2024/03/14 07:11:28;;;;;;;;;;;7.90;90.10;;;;;;5020699;28;87618;-45
2024/03/14 07:13:57;;;;;;;;;;;7.90;90.10;;;;;;5023161;28;86879;-45
2024/03/14 07:16:23;;;;;;;;;;;7.80;90.10;;;;;;5022208;28;87783;-44
2024/03/14 07:18:49;;;;;;;;;;;7.80;90.10;;;;;;5019098;28;87533;-43
2024/03/14 07:21:16;;;;;;;;;;;7.80;90.10;;;;;;5016394;28;87434;-44
2024/03/14 07:23:42;;;;;;;;;;;7.80;90.10;;;;;;5019385;28;89075;-45
2024/03/14 07:26:08;;;;;;;;;;;7.80;90.10;;;;;;5015849;28;87232;-46
2024/03/14 07:28:34;;;;;;;;;;;7.80;90.20;;;;;;5017911;28;89705;-45
2024/03/14 07:30:59;;;;;;;;;;;7.80;90.20;;;;;;5016919;28;88623;-44
2024/03/14 07:33:25;;;;;;;;;;;7.80;90.10;;;;;;5018902;28;87091;-45
2024/03/14 07:35:53;;;;;;;;;;;7.80;90.20;;;;;;5017996;28;87637;-44
2024/03/14 07:38:21;;;;;;;;;;;7.80;90.20;;;;;;5019377;28;88553;-44
2024/03/14 07:40:46;;;;;;;;;;;7.80;90.10;;;;;;5023496;28;86995;-45
2024/03/14 07:43:12;;;;;;;;;;;7.80;90.20;;;;;;5014660;28;87460;-45
2024/03/14 07:45:38;;;;;;;;;;;7.80;90.20;;;;;;5017753;28;88035;-45
2024/03/14 07:48:04;;;;;;;;;;;7.80;90.10;;;;;;5016774;28;87872;-46
2024/03/14 07:50:30;;;;;;;;;;;7.80;90.20;;;;;;5020934;28;87454;-46
2024/03/14 07:52:56;;;;;;;;;;;7.80;90.10;;;;;;5018331;28;87993;-46
2024/03/14 07:55:22;;;;;;;;;;;7.80;90.10;;;;;;5019704;28;88748;-46
2024/03/14 07:57:47;;;;;;;;;;;7.80;90.40;;;;;;5014244;28;88393;-46
2024/03/14 08:00:15;;;;;;;;;;;7.80;90.20;;;;;;5014067;28;86867;-46
2024/03/14 08:02:42;;;;;;;;;;;7.80;90.20;;;;;;5018299;28;88293;-44
2024/03/14 08:05:08;;;;;;;;;;;7.90;90.20;;;;;;5016802;28;88146;-44
2024/03/14 08:07:34;;;;;;;;;;;7.80;90.20;;;;;;5017392;28;87706;-44
2024/03/14 08:09:59;;;;;;;;;;;7.80;90.10;;;;;;5018891;28;87827;-44
2024/03/14 08:12:31;;;;;;;;;;;7.90;90.20;;;;;;5020884;28;87108;-44
2024/03/14 08:15:16;;;;;;;;;;;7.80;90.20;;;;;;5014313;28;87936;-44
2024/03/14 08:17:45;;;;;;;;;;;7.90;90.20;;;;;;5018491;28;89646;-44
2024/03/14 08:20:15;;;;;;;;;;;7.90;90.10;;;;;;5014272;28;87015;-44
2024/03/14 08:22:44;;;;;;;;;;;7.90;90.20;;;;;;5022554;28;87921;-45
2024/03/14 08:25:16;;;;;;;;;;;7.90;90.10;;;;;;5018597;28;87021;-44
2024/03/14 08:27:46;;;;;;;;;;;7.90;90.10;;;;;;5023014;28;86985;-43
2024/03/14 08:30:12;;;;;;;;;;;7.90;90.00;;;;;;5016677;28;88545;-44
2024/03/14 08:32:38;;;;;;;;;;;7.90;90.00;;;;;;5019622;28;87745;-45
2024/03/14 08:35:05;;;;;;;;;;;7.90;90.10;;;;;;5018526;28;86938;-43
2024/03/14 08:37:31;;;;;;;;;;;7.90;90.10;;;;;;5012988;28;90548;-45
2024/03/14 08:39:56;;;;;;;;;;;7.80;90.10;;;;;;5017343;28;87826;-44
2024/03/14 08:42:41;;;;;;;;;;;7.80;90.10;;;;;;5011947;28;89702;-45
2024/03/14 08:45:09;;;;;;;;;;;7.90;90.10;;;;;;5016924;28;88608;-44
2024/03/14 08:47:35;;;;;;;;;;;7.80;90.20;;;;;;5018500;28;86996;-45
2024/03/14 08:50:01;;;;;;;;;;;7.90;90.10;;;;;;5018415;28;88948;-44
2024/03/14 08:52:28;;;;;;;;;;;7.90;90.10;;;;;;5014881;28;87660;-46
2024/03/14 08:54:54;;;;;;;;;;;7.90;90.10;;;;;;5014262;28;86995;-45
2024/03/14 08:57:23;;;;;;;;;;;7.90;90.10;;;;;;5020514;28;88469;-44
2024/03/14 08:59:48;;;;;;;;;;;7.90;90.10;;;;;;5021328;28;86304;-43
2024/03/14 09:02:14;;;;;;;;;;;7.90;90.10;;;;;;5018714;28;87726;-45
2024/03/14 09:04:46;;;;;;;;;;;7.90;90.10;;;;;;5012039;28;88976;-44
2024/03/14 09:07:13;;;;;;;;;;;7.80;90.10;;;;;;5021190;28;87986;-45
2024/03/14 09:09:40;;;;;;;;;;;7.90;90.20;;;;;;5013460;28;88775;-45
2024/03/14 09:12:48;;;;;;;;;;;7.90;90.30;;;;;;5018908;28;87441;-43
2024/03/14 09:14:55;;;;;;;;;;;7.90;90.20;;;;;;5014123;28;87706;-43
2024/03/14 09:17:21;;;;;;;;;;;7.90;90.20;;;;;;5018227;28;88513;-43
2024/03/14 09:19:47;;;;;;;;;;;7.90;90.20;;;;;;5021968;28;87006;-43
2024/03/14 09:22:12;;;;;;;;;;;7.80;90.20;;;;;;5021123;28;87810;-44
2024/03/14 09:24:38;;;;;;;;;;;7.80;90.20;;;;;;5022343;28;86764;-44
2024/03/14 09:27:05;;;;;;;;;;;7.80;90.20;;;;;;5019832;28;87379;-44
2024/03/14 09:29:32;;;;;;;;;;;7.80;90.20;;;;;;5024217;28;87084;-45
2024/03/14 09:31:59;;;;;;;;;;;7.80;90.30;;;;;;5019293;28;87964;-46
2024/03/14 09:34:25;;;;;;;;;;;7.80;90.20;;;;;;5018967;28;90359;-45
2024/03/14 09:36:53;;;;;;;;;;;7.80;90.20;;;;;;5024362;28;88486;-44
2024/03/14 09:39:21;;;;;;;;;;;7.90;90.30;;;;;;5017256;28;87141;-44
2024/03/14 09:41:48;;;;;;;;;;;7.90;90.20;;;;;;5019665;28;88093;-45
2024/03/14 09:44:14;;;;;;;;;;;7.90;90.20;;;;;;5017798;28;87429;-45
2024/03/14 09:46:42;;;;;;;;;;;7.80;90.60;;;;;;5022403;28;87552;-46
2024/03/14 09:49:12;;;;;;;;;;;7.80;90.30;;;;;;5019758;28;86719;-44
2024/03/14 09:51:38;;;;;;;;;;;7.80;90.30;;;;;;5022090;28;88476;-44
2024/03/14 09:54:04;;;;;;;;;;;7.80;90.30;;;;;;5019282;28;87410;-45
2024/03/14 09:56:30;;;;;;;;;;;7.80;90.30;;;;;;5011835;28;89546;-45
2024/03/14 09:58:56;;;;;;;;;;;7.80;90.20;;;;;;5020906;28;87658;-46
2024/03/14 10:01:22;;;;;;;;;;;7.80;90.30;;;;;;5021696;28;87903;-45
2024/03/14 10:03:47;;;;;;;;;;;7.90;90.30;;;;;;5022300;28;87491;-44
2024/03/14 10:06:17;;;;;;;;;;;7.90;90.30;;;;;;5020620;28;87116;-45
2024/03/14 10:08:47;;;;;;;;;;;7.90;90.30;;;;;;5019939;28;87876;-46
2024/03/14 10:11:13;;;;;;;;;;;7.90;90.30;;;;;;5018855;28;87594;-44
2024/03/14 10:13:40;;;;;;;;;;;7.90;90.30;;;;;;5025420;28;86407;-44
2024/03/14 10:16:05;;;;;;;;;;;7.90;90.20;;;;;;5020199;28;88857;-45
2024/03/14 10:18:32;;;;;;;;;;;7.90;90.30;;;;;;5023991;28;87402;-45
2024/03/14 10:21:03;;;;;;;;;;;7.90;90.30;;;;;;5018302;28;88012;-45
2024/03/14 10:23:29;;;;;;;;;;;7.90;90.60;;;;;;5013731;28;87646;-44
2024/03/14 10:25:55;;;;;;;;;;;7.90;90.30;;;;;;5022258;28;87646;-45
2024/03/14 10:28:27;;;;;;;;;;;7.90;90.40;;;;;;5021166;28;87902;-44
2024/03/14 10:30:57;;;;;;;;;;;7.90;90.40;;;;;;5020487;28;88851;-44
2024/03/14 10:33:26;;;;;;;;;;;7.90;90.40;;;;;;5021347;28;87010;-45
2024/03/14 10:35:57;;;;;;;;;;;7.90;90.40;;;;;;5020956;28;88028;-45
2024/03/14 10:38:25;;;;;;;;;;;7.90;90.40;;;;;;5017865;28;87706;-44
2024/03/14 10:40:54;;;;;;;;;;;7.80;90.40;;;;;;5017155;28;87361;-46
2024/03/14 10:43:20;;;;;;;;;;;7.80;90.40;;;;;;5018677;28;88513;-44
2024/03/14 10:45:52;;;;;;;;;;;7.80;90.40;;;;;;5020845;28;88130;-45
2024/03/14 10:48:21;;;;;;;;;;;7.80;90.40;;;;;;5022498;28;88950;-46
2024/03/14 10:50:50;;;;;;;;;;;7.80;90.40;;;;;;5020688;28;88988;-44
2024/03/14 10:53:16;;;;;;;;;;;7.80;90.50;;;;;;5016048;28;87396;-44
2024/03/14 10:55:42;;;;;;;;;;;7.80;90.40;;;;;;5027914;28;87134;-44
2024/03/14 10:58:08;;;;;;;;;;;7.90;90.40;;;;;;5021889;28;87211;-45
2024/03/14 11:00:34;;;;;;;;;;;7.80;90.40;;;;;;5021029;28;87572;-45
2024/03/14 11:03:01;;;;;;;;;;;7.80;90.50;;;;;;5019164;28;86691;-45
2024/03/14 11:05:27;;;;;;;;;;;7.80;90.50;;;;;;5020171;28;87110;-44
2024/03/14 11:07:54;;;;;;;;;;;7.80;90.40;;;;;;5021548;28;88654;-45
2024/03/14 11:10:30;;;;;;;;;;;7.90;90.40;;;;;;5022894;28;88686;-46
2024/03/14 11:13:01;;;;;;;;;;;7.90;90.40;;;;;;5021114;28;86998;-44
2024/03/14 11:15:27;;;;;;;;;;;7.90;90.40;;;;;;5019240;28;87251;-45
2024/03/14 11:17:55;;;;;;;;;;;7.80;90.40;;;;;;5024591;28;87546;-46
2024/03/14 11:20:25;;;;;;;;;;;7.80;90.40;;;;;;5019450;28;87059;-44
2024/03/14 11:22:53;;;;;;;;;;;7.80;90.40;;;;;;5020855;28;88056;-44
2024/03/14 11:25:20;;;;;;;;;;;7.80;90.40;;;;;;5018453;28;87380;-46
2024/03/14 11:27:46;;;;;;;;;;;7.80;90.40;;;;;;5017350;28;87860;-47
2024/03/14 11:30:15;;;;;;;;;;;7.90;90.40;;;;;;5014141;28;87317;-47
2024/03/14 11:32:55;;;;;;;;;;;7.90;90.30;;;;;;5017680;28;87157;-46
2024/03/14 11:35:26;;;;;;;;;;;7.80;90.40;;;;;;5016771;28;87946;-45
2024/03/14 11:37:53;;;;;;;;;;;7.90;90.40;;;;;;5019765;28;87800;-44
2024/03/14 11:40:20;;;;;;;;;;;7.80;90.30;;;;;;5017849;28;87506;-43
2024/03/14 11:42:51;;;;;;;;;;;7.90;90.40;;;;;;5019304;28;88613;-44
2024/03/14 11:45:17;;;;;;;;;;;7.80;90.40;;;;;;5017962;28;87093;-43
2024/03/14 11:47:43;;;;;;;;;;;7.80;90.40;;;;;;5019075;28;87731;-44
2024/03/14 11:50:09;;;;;;;;;;;7.90;90.40;;;;;;5017626;28;88587;-44
2024/03/14 11:52:38;;;;;;;;;;;7.90;90.40;;;;;;5013637;28;86396;-44
2024/03/14 11:55:07;;;;;;;;;;;7.90;90.30;;;;;;5018225;28;88020;-44
2024/03/14 11:57:33;;;;;;;;;;;7.90;90.40;;;;;;5018057;28;89117;-45
2024/03/14 12:00:08;;;;;;;;;;;7.90;90.40;;;;;;5016996;28;87975;-45
2024/03/14 12:02:34;;;;;;;;;;;7.80;90.30;;;;;;5021752;28;88653;-44
2024/03/14 12:05:03;;;;;;;;;;;7.80;90.40;;;;;;5018244;28;87044;-44
2024/03/14 12:07:30;;;;;;;;;;;7.90;90.40;;;;;;5015569;28;87005;-45
2024/03/14 12:09:57;;;;;;;;;;;7.80;90.40;;;;;;5015308;28;89073;-46
2024/03/14 12:12:23;;;;;;;;;;;7.90;90.40;;;;;;5019017;28;87075;-43
2024/03/14 12:14:55;;;;;;;;;;;7.90;90.40;;;;;;5019838;28;86946;-43
2024/03/14 12:17:21;;;;;;;;;;;7.90;90.30;;;;;;5018890;28;86707;-43
2024/03/14 12:19:46;;;;;;;;;;;7.90;90.40;;;;;;5017382;28;87654;-44
2024/03/14 12:22:13;;;;;;;;;;;7.90;90.30;;;;;;5019358;28;87182;-43
2024/03/14 12:24:39;;;;;;;;;;;7.90;90.40;;;;;;5019309;28;88472;-45
2024/03/14 12:27:09;;;;;;;;;;;7.90;90.40;;;;;;5016815;28;88013;-45
2024/03/14 12:29:36;;;;;;;;;;;7.80;90.40;;;;;;5021904;28;87654;-45
2024/03/14 12:32:04;;;;;;;;;;;7.80;90.30;;;;;;5013089;28;87080;-44
2024/03/14 12:34:30;;;;;;;;;;;7.80;90.40;;;;;;5013708;28;86970;-45
2024/03/14 12:36:57;;;;;;;;;;;7.80;90.30;;;;;;5017610;28;88901;-45
2024/03/14 12:39:25;;;;;;;;;;;7.90;90.30;;;;;;5016531;28;87596;-45
2024/03/14 12:41:52;;;;;;;;;;;7.80;90.40;;;;;;5014899;28;86440;-44
2024/03/14 12:44:18;;;;;;;;;;;7.80;90.30;;;;;;5020368;28;88592;-43
2024/03/14 12:46:47;;;;;;;;;;;7.80;90.30;;;;;;5012011;28;87299;-45
2024/03/14 12:49:13;;;;;;;;;;;7.90;90.50;;;;;;5015437;28;88981;-45
2024/03/14 12:51:41;;;;;;;;;;;7.80;90.30;;;;;;5015806;28;87120;-44
2024/03/14 12:54:06;;;;;;;;;;;7.80;90.30;;;;;;5019275;28;89242;-44
2024/03/14 12:56:33;;;;;;;;;;;7.90;90.20;;;;;;5019005;28;88562;-45
2024/03/14 12:58:58;;;;;;;;;;;7.90;90.20;;;;;;5015844;28;87023;-44
2024/03/14 13:01:28;;;;;;;;;;;7.90;90.30;;;;;;5018827;28;87787;-44
2024/03/14 13:04:06;;;;;;;;;;;7.90;90.20;;;;;;5009048;28;88678;-44
2024/03/14 13:06:33;;;;;;;;;;;7.90;90.20;;;;;;5019518;28;86328;-43
2024/03/14 13:09:20;;;;;;;;;;;7.90;90.10;;;;;;5019339;28;88476;-45
2024/03/14 13:12:18;;;;;;;;;;;7.90;90.10;;;;;;5019844;28;87275;-45
2024/03/14 13:15:00;;;;;;;;;;;7.80;90.20;;;;;;5000588;28;88409;-44
2024/03/14 13:17:25;;;;;;;;;;;7.80;90.20;;;;;;5016868;28;88571;-45
2024/03/14 13:19:57;;;;;;;;;;;7.90;90.30;;;;;;5016678;28;87271;-44
2024/03/14 13:22:23;;;;;;;;;;;7.90;90.20;;;;;;5019358;28;87882;-46
2024/03/14 13:24:49;;;;;;;;;;;7.90;90.20;;;;;;5019680;28;87616;-43
2024/03/14 13:27:15;;;;;;;;;;;7.90;90.20;;;;;;5016045;28;86989;-45
2024/03/14 13:29:41;;;;;;;;;;;7.90;90.20;;;;;;5021022;28;87452;-45
2024/03/14 13:32:06;;;;;;;;;;;7.90;90.20;;;;;;5014036;28;87722;-44
2024/03/14 13:34:33;;;;;;;;;;;7.90;90.30;;;;;;5014683;28;87625;-46
2024/03/14 13:36:59;;;;;;;;;;;7.90;90.30;;;;;;5015777;28;87803;-46
2024/03/14 13:39:26;;;;;;;;;;;7.90;90.20;;;;;;5010125;28;89808;-44
2024/03/14 13:41:57;;;;;;;;;;;7.90;90.30;;;;;;5012075;28;88839;-43
2024/03/14 13:44:23;;;;;;;;;;;7.80;90.30;;;;;;5013990;28;88642;-43
2024/03/14 13:46:50;;;;;;;;;;;7.80;90.30;;;;;;5015932;28;87621;-43
2024/03/14 13:49:18;;;;;;;;;;;7.90;90.30;;;;;;5013011;28;87167;-46
2024/03/14 13:51:43;;;;;;;;;;;7.80;90.30;;;;;;5020813;28;88461;-45
2024/03/14 13:54:17;;;;;;;;;;;7.90;90.20;;;;;;5015853;28;87562;-45
2024/03/14 13:56:47;;;;;;;;;;;7.90;90.30;;;;;;5021533;28;87870;-44
2024/03/14 13:59:15;;;;;;;;;;;7.80;90.30;;;;;;5018602;28;87388;-45
2024/03/14 14:01:41;;;;;;;;;;;7.90;90.30;;;;;;5017329;28;87965;-45
2024/03/14 14:04:07;;;;;;;;;;;7.80;90.20;;;;;;5022569;28;88456;-46
2024/03/14 14:06:36;;;;;;;;;;;7.80;90.20;;;;;;5022957;28;87134;-46
2024/03/14 14:09:03;;;;;;;;;;;7.90;90.20;;;;;;5019199;28;87370;-45
2024/03/14 14:11:29;;;;;;;;;;;7.90;90.20;;;;;;5018490;28;88574;-45
2024/03/14 14:13:55;;;;;;;;;;;7.90;90.20;;;;;;5022140;28;87028;-44
2024/03/14 14:16:21;;;;;;;;;;;7.90;90.20;;;;;;5020192;28;88458;-45
2024/03/14 14:18:47;;;;;;;;;;;7.80;90.20;;;;;;5024435;28;87072;-45
2024/03/14 14:21:12;;;;;;;;;;;7.80;90.20;;;;;;5017828;28;87783;-45
2024/03/14 14:23:38;;;;;;;;;;;7.90;90.20;;;;;;5016926;28;87673;-45
2024/03/14 14:26:04;;;;;;;;;;;7.90;90.10;;;;;;5018467;28;87303;-45
2024/03/14 14:28:30;;;;;;;;;;;7.90;90.20;;;;;;5020447;28;87952;-44
2024/03/14 14:30:56;;;;;;;;;;;7.90;90.10;;;;;;5021715;28;88018;-44